sensor_id;sensor_type;location;lat;lon;timestamp;pressure;altitude;pressure_sealevel;temperature;humidity
6435;BME280;3250;42.694;23.278;2022-07-06T00:02:20;94826.06;;;21.69;93.26
6435;BME280;3250;42.694;23.278;2022-07-06T00:04:46;94845.00;;;21.78;93.58
6435;BME280;3250;42.694;23.278;2022-07-06T00:07:11;94841.81;;;21.76;93.21
6435;BME280;3250;42.694;23.278;2022-07-06T00:09:39;94848.53;;;21.73;93.28
6435;BME280;3250;42.694;23.278;2022-07-06T00:12:05;94850.94;;;21.75;93.02
6435;BME280;3250;42.694;23.278;2022-07-06T00:14:30;94844.50;;;21.71;93.36
6435;BME280;3250;42.694;23.278;2022-07-06T00:16:56;94844.44;;;21.81;93.47
6435;BME280;3250;42.694;23.278;2022-07-06T00:19:21;94858.09;;;21.79;93.34
6435;BME280;3250;42.694;23.278;2022-07-06T00:21:47;94854.66;;;21.79;93.38
6435;BME280;3250;42.694;23.278;2022-07-06T00:24:12;94861.91;;;21.78;92.72
6435;BME280;3250;42.694;23.278;2022-07-06T00:26:38;94866.69;;;21.81;92.41
6435;BME280;3250;42.694;23.278;2022-07-06T00:29:04;94855.00;;;21.67;92.47
6435;BME280;3250;42.694;23.278;2022-07-06T00:31:29;94850.81;;;21.56;92.51
6435;BME280;3250;42.694;23.278;2022-07-06T00:33:55;94878.06;;;21.63;92.97
6435;BME280;3250;42.694;23.278;2022-07-06T00:36:20;94883.16;;;21.65;92.71
6435;BME280;3250;42.694;23.278;2022-07-06T00:38:45;94868.75;;;21.56;92.63
6435;BME280;3250;42.694;23.278;2022-07-06T00:41:14;94878.66;;;21.55;92.63
6435;BME280;3250;42.694;23.278;2022-07-06T00:43:54;94881.41;;;21.45;92.44
6435;BME280;3250;42.694;23.278;2022-07-06T00:46:30;94891.38;;;21.39;93.78
6435;BME280;3250;42.694;23.278;2022-07-06T00:48:56;94893.44;;;21.48;93.76
6435;BME280;3250;42.694;23.278;2022-07-06T00:51:25;94876.84;;;21.45;93.79
6435;BME280;3250;42.694;23.278;2022-07-06T00:53:51;94875.22;;;21.50;93.29
6435;BME280;3250;42.694;23.278;2022-07-06T00:56:17;94865.03;;;21.52;93.18
6435;BME280;3250;42.694;23.278;2022-07-06T00:58:43;94862.59;;;21.55;92.35
6435;BME280;3250;42.694;23.278;2022-07-06T01:01:09;94826.53;;;21.42;91.80
6435;BME280;3250;42.694;23.278;2022-07-06T01:03:34;94842.28;;;21.49;91.44
6435;BME280;3250;42.694;23.278;2022-07-06T01:06:00;94833.75;;;21.42;90.92
6435;BME280;3250;42.694;23.278;2022-07-06T01:08:26;94824.69;;;21.38;91.21
6435;BME280;3250;42.694;23.278;2022-07-06T01:10:51;94822.56;;;21.35;91.56
6435;BME280;3250;42.694;23.278;2022-07-06T01:13:17;94819.16;;;21.19;91.36
6435;BME280;3250;42.694;23.278;2022-07-06T01:15:42;94827.72;;;21.21;91.81
6435;BME280;3250;42.694;23.278;2022-07-06T01:18:10;94826.94;;;21.21;91.89
6435;BME280;3250;42.694;23.278;2022-07-06T01:20:36;94834.41;;;21.24;91.94
6435;BME280;3250;42.694;23.278;2022-07-06T01:23:02;94805.84;;;21.09;91.63
6435;BME280;3250;42.694;23.278;2022-07-06T01:25:27;94828.25;;;21.23;91.16
6435;BME280;3250;42.694;23.278;2022-07-06T01:27:53;94832.28;;;21.26;90.73
6435;BME280;3250;42.694;23.278;2022-07-06T01:30:19;94829.34;;;21.22;90.74
6435;BME280;3250;42.694;23.278;2022-07-06T01:32:45;94813.56;;;21.16;90.76
6435;BME280;3250;42.694;23.278;2022-07-06T01:35:13;94827.72;;;21.26;90.16
6435;BME280;3250;42.694;23.278;2022-07-06T01:37:39;94794.63;;;21.02;90.19
6435;BME280;3250;42.694;23.278;2022-07-06T01:40:07;94825.31;;;21.20;90.26
6435;BME280;3250;42.694;23.278;2022-07-06T01:42:33;94830.69;;;21.20;90.46
6435;BME280;3250;42.694;23.278;2022-07-06T01:44:59;94824.03;;;21.17;90.39
6435;BME280;3250;42.694;23.278;2022-07-06T01:47:24;94804.03;;;20.99;90.53
6435;BME280;3250;42.694;23.278;2022-07-06T01:49:50;94821.59;;;21.16;89.78
6435;BME280;3250;42.694;23.278;2022-07-06T01:52:15;94829.38;;;21.17;89.43
6435;BME280;3250;42.694;23.278;2022-07-06T01:54:41;94809.69;;;20.93;89.27
6435;BME280;3250;42.694;23.278;2022-07-06T01:57:06;94822.06;;;20.79;90.10
6435;BME280;3250;42.694;23.278;2022-07-06T01:59:32;94837.56;;;20.82;90.65
6435;BME280;3250;42.694;23.278;2022-07-06T02:01:57;94837.66;;;20.66;91.18
6435;BME280;3250;42.694;23.278;2022-07-06T02:04:23;94837.16;;;20.54;91.71
6435;BME280;3250;42.694;23.278;2022-07-06T02:06:48;94821.41;;;20.43;91.70
6435;BME280;3250;42.694;23.278;2022-07-06T02:09:14;94829.66;;;20.51;91.98
6435;BME280;3250;42.694;23.278;2022-07-06T02:11:39;94834.75;;;20.53;91.52
6435;BME280;3250;42.694;23.278;2022-07-06T02:14:05;94830.22;;;20.48;91.76
6435;BME280;3250;42.694;23.278;2022-07-06T02:16:30;94836.38;;;20.49;91.89
6435;BME280;3250;42.694;23.278;2022-07-06T02:18:56;94834.50;;;20.49;90.76
6435;BME280;3250;42.694;23.278;2022-07-06T02:21:21;94827.56;;;20.43;90.96
6435;BME280;3250;42.694;23.278;2022-07-06T02:23:47;94828.13;;;20.40;90.60
6435;BME280;3250;42.694;23.278;2022-07-06T02:26:12;94829.19;;;20.34;90.84
6435;BME280;3250;42.694;23.278;2022-07-06T02:28:38;94825.69;;;20.33;91.06
6435;BME280;3250;42.694;23.278;2022-07-06T02:31:03;94809.94;;;20.37;91.00
6435;BME280;3250;42.694;23.278;2022-07-06T02:33:29;94819.00;;;20.41;90.71
6435;BME280;3250;42.694;23.278;2022-07-06T02:35:54;94821.97;;;20.40;90.50
6435;BME280;3250;42.694;23.278;2022-07-06T02:38:20;94815.81;;;20.34;90.39
6435;BME280;3250;42.694;23.278;2022-07-06T02:40:45;94788.84;;;20.20;90.57
6435;BME280;3250;42.694;23.278;2022-07-06T02:43:11;94811.25;;;20.34;90.36
6435;BME280;3250;42.694;23.278;2022-07-06T02:45:36;94821.66;;;20.41;89.91
6435;BME280;3250;42.694;23.278;2022-07-06T02:48:02;94823.28;;;20.42;90.05
6435;BME280;3250;42.694;23.278;2022-07-06T02:50:27;94807.25;;;20.32;90.12
6435;BME280;3250;42.694;23.278;2022-07-06T02:52:53;94827.00;;;20.41;90.16
6435;BME280;3250;42.694;23.278;2022-07-06T02:55:20;94822.47;;;20.42;90.17
6435;BME280;3250;42.694;23.278;2022-07-06T02:57:45;94830.50;;;20.42;89.71
6435;BME280;3250;42.694;23.278;2022-07-06T03:00:11;94820.34;;;20.39;90.19
6435;BME280;3250;42.694;23.278;2022-07-06T03:02:37;94827.00;;;20.41;90.18
6435;BME280;3250;42.694;23.278;2022-07-06T03:05:03;94823.28;;;20.42;90.02
6435;BME280;3250;42.694;23.278;2022-07-06T03:07:29;94825.72;;;20.39;89.88
6435;BME280;3250;42.694;23.278;2022-07-06T03:09:54;94815.53;;;20.25;90.15
6435;BME280;3250;42.694;23.278;2022-07-06T03:12:20;94817.72;;;20.23;90.20
6435;BME280;3250;42.694;23.278;2022-07-06T03:14:45;94822.75;;;20.25;90.51
6435;BME280;3250;42.694;23.278;2022-07-06T03:17:11;94838.53;;;20.31;90.55
6435;BME280;3250;42.694;23.278;2022-07-06T03:19:36;94834.25;;;20.36;90.04
6435;BME280;3250;42.694;23.278;2022-07-06T03:22:02;94834.53;;;20.34;90.04
6435;BME280;3250;42.694;23.278;2022-07-06T03:24:27;94827.59;;;20.23;90.12
6435;BME280;3250;42.694;23.278;2022-07-06T03:26:53;94805.41;;;20.07;90.51
6435;BME280;3250;42.694;23.278;2022-07-06T03:29:18;94826.78;;;20.17;90.02
6435;BME280;3250;42.694;23.278;2022-07-06T03:31:44;94846.28;;;20.28;89.85
6435;BME280;3250;42.694;23.278;2022-07-06T03:34:09;94838.59;;;20.01;89.67
6435;BME280;3250;42.694;23.278;2022-07-06T03:36:35;94853.78;;;20.21;90.09
6435;BME280;3250;42.694;23.278;2022-07-06T03:39:00;94839.91;;;20.19;89.98
6435;BME280;3250;42.694;23.278;2022-07-06T03:41:26;94863.94;;;20.34;89.64
6435;BME280;3250;42.694;23.278;2022-07-06T03:43:51;94835.31;;;20.24;89.21
6435;BME280;3250;42.694;23.278;2022-07-06T03:46:16;94859.16;;;20.21;88.72
6435;BME280;3250;42.694;23.278;2022-07-06T03:48:42;94859.69;;;20.08;89.59
6435;BME280;3250;42.694;23.278;2022-07-06T03:51:07;94858.06;;;20.27;90.30
6435;BME280;3250;42.694;23.278;2022-07-06T03:53:33;94855.38;;;20.47;91.21
6435;BME280;3250;42.694;23.278;2022-07-06T03:55:58;94862.53;;;20.62;88.92
6435;BME280;3250;42.694;23.278;2022-07-06T03:58:42;94861.13;;;20.80;88.47
6435;BME280;3250;42.694;23.278;2022-07-06T04:01:08;94862.06;;;21.04;88.64
6435;BME280;3250;42.694;23.278;2022-07-06T04:03:33;94854.53;;;21.16;87.14
6435;BME280;3250;42.694;23.278;2022-07-06T04:05:59;94869.38;;;21.42;85.71
6435;BME280;3250;42.694;23.278;2022-07-06T04:08:24;94874.59;;;21.63;84.95
6435;BME280;3250;42.694;23.278;2022-07-06T04:10:50;94868.63;;;21.76;84.73
6435;BME280;3250;42.694;23.278;2022-07-06T04:13:15;94864.41;;;21.99;83.87
6435;BME280;3250;42.694;23.278;2022-07-06T04:15:41;94876.78;;;22.24;82.24
6435;BME280;3250;42.694;23.278;2022-07-06T04:18:06;94877.75;;;22.38;82.37
6435;BME280;3250;42.694;23.278;2022-07-06T04:20:32;94877.84;;;22.51;81.60
6435;BME280;3250;42.694;23.278;2022-07-06T04:22:57;94885.34;;;22.54;80.04
6435;BME280;3250;42.694;23.278;2022-07-06T04:25:23;94857.63;;;22.35;79.93
6435;BME280;3250;42.694;23.278;2022-07-06T04:27:49;94885.00;;;22.61;80.24
6435;BME280;3250;42.694;23.278;2022-07-06T04:30:14;94885.88;;;22.80;79.84
6435;BME280;3250;42.694;23.278;2022-07-06T04:32:40;94902.09;;;22.94;80.11
6435;BME280;3250;42.694;23.278;2022-07-06T04:35:06;94903.31;;;23.07;78.64
6435;BME280;3250;42.694;23.278;2022-07-06T04:37:32;94902.44;;;23.30;77.74
6435;BME280;3250;42.694;23.278;2022-07-06T04:39:57;94892.88;;;23.61;76.68
6435;BME280;3250;42.694;23.278;2022-07-06T04:42:23;94920.50;;;23.86;75.11
6435;BME280;3250;42.694;23.278;2022-07-06T04:44:49;94916.00;;;23.81;74.99
6435;BME280;3250;42.694;23.278;2022-07-06T04:47:17;94925.59;;;23.68;73.99
6435;BME280;3250;42.694;23.278;2022-07-06T04:49:42;94916.28;;;23.42;74.71
6435;BME280;3250;42.694;23.278;2022-07-06T04:52:07;94919.66;;;23.29;75.15
6435;BME280;3250;42.694;23.278;2022-07-06T04:54:33;94922.44;;;23.00;75.62
6435;BME280;3250;42.694;23.278;2022-07-06T04:56:58;94934.50;;;23.03;77.47
6435;BME280;3250;42.694;23.278;2022-07-06T04:59:24;94937.47;;;23.01;77.45
6435;BME280;3250;42.694;23.278;2022-07-06T05:01:49;94908.38;;;22.32;77.68
6435;BME280;3250;42.694;23.278;2022-07-06T05:04:15;94925.41;;;21.78;79.51
6435;BME280;3250;42.694;23.278;2022-07-06T05:06:43;94926.41;;;21.48;81.80
6435;BME280;3250;42.694;23.278;2022-07-06T05:09:09;94919.22;;;21.43;82.98
6435;BME280;3250;42.694;23.278;2022-07-06T05:11:34;94937.06;;;21.58;82.82
6435;BME280;3250;42.694;23.278;2022-07-06T05:13:59;94943.13;;;21.74;83.10
6435;BME280;3250;42.694;23.278;2022-07-06T05:16:25;94954.31;;;21.86;82.51
6435;BME280;3250;42.694;23.278;2022-07-06T05:18:50;94959.84;;;21.56;82.77
6435;BME280;3250;42.694;23.278;2022-07-06T05:21:16;94924.13;;;21.21;82.80
6435;BME280;3250;42.694;23.278;2022-07-06T05:23:41;94958.50;;;21.58;83.63
6435;BME280;3250;42.694;23.278;2022-07-06T05:26:07;94959.22;;;21.74;83.19
6435;BME280;3250;42.694;23.278;2022-07-06T05:28:32;94928.97;;;21.68;82.42
6435;BME280;3250;42.694;23.278;2022-07-06T05:30:59;94962.00;;;22.03;82.62
6435;BME280;3250;42.694;23.278;2022-07-06T05:33:27;94937.00;;;22.07;81.24
6435;BME280;3250;42.694;23.278;2022-07-06T05:35:53;94956.25;;;22.48;80.69
6435;BME280;3250;42.694;23.278;2022-07-06T05:38:18;94968.84;;;22.82;79.01
6435;BME280;3250;42.694;23.278;2022-07-06T05:40:44;94947.41;;;23.01;77.52
6435;BME280;3250;42.694;23.278;2022-07-06T05:43:09;94971.63;;;23.43;77.94
6435;BME280;3250;42.694;23.278;2022-07-06T05:45:35;94955.38;;;23.53;76.61
6435;BME280;3250;42.694;23.278;2022-07-06T05:48:00;94968.69;;;24.01;73.71
6435;BME280;3250;42.694;23.278;2022-07-06T05:50:44;94978.78;;;24.28;72.67
6435;BME280;3250;42.694;23.278;2022-07-06T05:53:10;94984.69;;;24.30;72.39
6435;BME280;3250;42.694;23.278;2022-07-06T05:55:36;94955.84;;;24.30;71.88
6435;BME280;3250;42.694;23.278;2022-07-06T05:58:01;94985.56;;;24.58;72.31
6435;BME280;3250;42.694;23.278;2022-07-06T06:00:27;94982.00;;;24.76;70.83
6435;BME280;3250;42.694;23.278;2022-07-06T06:02:55;94971.41;;;24.66;70.39
6435;BME280;3250;42.694;23.278;2022-07-06T06:05:21;94985.31;;;24.73;70.34
6435;BME280;3250;42.694;23.278;2022-07-06T06:07:47;94980.41;;;24.61;71.48
6435;BME280;3250;42.694;23.278;2022-07-06T06:10:15;94988.53;;;24.56;71.75
6435;BME280;3250;42.694;23.278;2022-07-06T06:12:41;94982.25;;;24.47;72.54
6435;BME280;3250;42.694;23.278;2022-07-06T06:15:08;94984.59;;;24.35;71.11
6435;BME280;3250;42.694;23.278;2022-07-06T06:17:34;94963.72;;;24.08;72.54
6435;BME280;3250;42.694;23.278;2022-07-06T06:20:00;94969.78;;;24.00;72.15
6435;BME280;3250;42.694;23.278;2022-07-06T06:22:26;94976.19;;;23.85;72.36
6435;BME280;3250;42.694;23.278;2022-07-06T06:24:51;94982.78;;;23.74;73.39
6435;BME280;3250;42.694;23.278;2022-07-06T06:27:17;94977.78;;;23.67;74.70
6435;BME280;3250;42.694;23.278;2022-07-06T06:29:43;94974.13;;;23.58;74.44
6435;BME280;3250;42.694;23.278;2022-07-06T06:32:10;94942.47;;;23.31;74.39
6435;BME280;3250;42.694;23.278;2022-07-06T06:34:36;94947.03;;;23.31;75.93
6435;BME280;3250;42.694;23.278;2022-07-06T06:37:01;94939.50;;;23.33;75.45
6435;BME280;3250;42.694;23.278;2022-07-06T06:39:27;94967.16;;;23.57;74.79
6435;BME280;3250;42.694;23.278;2022-07-06T06:41:52;94939.88;;;23.45;74.65
6435;BME280;3250;42.694;23.278;2022-07-06T06:44:18;94962.78;;;23.61;74.53
6435;BME280;3250;42.694;23.278;2022-07-06T06:46:44;94962.66;;;23.90;74.84
6435;BME280;3250;42.694;23.278;2022-07-06T06:49:09;94935.91;;;23.80;72.81
6435;BME280;3250;42.694;23.278;2022-07-06T06:51:35;94959.06;;;24.14;73.22
6435;BME280;3250;42.694;23.278;2022-07-06T06:54:03;94967.81;;;24.24;71.74
6435;BME280;3250;42.694;23.278;2022-07-06T06:56:28;94964.97;;;24.34;71.92
6435;BME280;3250;42.694;23.278;2022-07-06T06:58:54;94955.78;;;24.35;71.93
6435;BME280;3250;42.694;23.278;2022-07-06T07:01:19;94964.56;;;24.41;72.04
6435;BME280;3250;42.694;23.278;2022-07-06T07:03:44;94974.53;;;24.40;71.17
6435;BME280;3250;42.694;23.278;2022-07-06T07:06:10;94951.59;;;24.29;71.56
6435;BME280;3250;42.694;23.278;2022-07-06T07:08:35;94957.78;;;24.30;71.45
6435;BME280;3250;42.694;23.278;2022-07-06T07:11:01;94967.13;;;24.32;71.85
6435;BME280;3250;42.694;23.278;2022-07-06T07:13:26;94966.63;;;24.30;71.38
6435;BME280;3250;42.694;23.278;2022-07-06T07:15:51;94947.31;;;24.10;72.12
6435;BME280;3250;42.694;23.278;2022-07-06T07:18:17;94944.34;;;23.92;71.98
6435;BME280;3250;42.694;23.278;2022-07-06T07:20:42;94962.13;;;24.07;72.39
6435;BME280;3250;42.694;23.278;2022-07-06T07:23:08;94922.59;;;23.89;71.50
6435;BME280;3250;42.694;23.278;2022-07-06T07:25:33;94959.16;;;24.08;71.13
6435;BME280;3250;42.694;23.278;2022-07-06T07:27:59;94959.66;;;24.11;72.25
6435;BME280;3250;42.694;23.278;2022-07-06T07:30:24;94935.97;;;24.13;72.39
6435;BME280;3250;42.694;23.278;2022-07-06T07:32:50;94966.72;;;24.25;70.09
6435;BME280;3250;42.694;23.278;2022-07-06T07:35:15;94967.06;;;24.19;71.02
6435;BME280;3250;42.694;23.278;2022-07-06T07:37:41;94965.34;;;24.28;72.22
6435;BME280;3250;42.694;23.278;2022-07-06T07:40:06;94957.22;;;24.47;72.49
6435;BME280;3250;42.694;23.278;2022-07-06T07:42:32;94960.63;;;24.52;70.59
6435;BME280;3250;42.694;23.278;2022-07-06T07:44:58;94936.28;;;24.43;68.97
6435;BME280;3250;42.694;23.278;2022-07-06T07:47:24;94946.13;;;24.34;70.94
6435;BME280;3250;42.694;23.278;2022-07-06T07:49:49;94956.84;;;24.67;71.97
6435;BME280;3250;42.694;23.278;2022-07-06T07:52:15;94958.28;;;24.64;68.98
6435;BME280;3250;42.694;23.278;2022-07-06T07:54:43;94946.50;;;24.74;71.01
6435;BME280;3250;42.694;23.278;2022-07-06T07:57:09;94953.75;;;25.06;73.13
6435;BME280;3250;42.694;23.278;2022-07-06T07:59:35;94948.53;;;25.37;70.50
6435;BME280;3250;42.694;23.278;2022-07-06T08:02:00;94957.50;;;25.73;67.53
6435;BME280;3250;42.694;23.278;2022-07-06T08:04:26;94955.69;;;26.41;69.24
6435;BME280;3250;42.694;23.278;2022-07-06T08:06:51;94947.31;;;26.82;62.25
6435;BME280;3250;42.694;23.278;2022-07-06T08:09:17;94936.72;;;27.25;64.70
6435;BME280;3250;42.694;23.278;2022-07-06T08:11:43;94964.25;;;27.75;60.63
6435;BME280;3250;42.694;23.278;2022-07-06T08:14:09;94966.16;;;27.74;60.07
6435;BME280;3250;42.694;23.278;2022-07-06T08:16:34;94961.53;;;27.75;61.61
6435;BME280;3250;42.694;23.278;2022-07-06T08:19:00;94966.97;;;28.09;60.80
6435;BME280;3250;42.694;23.278;2022-07-06T08:21:25;94946.75;;;28.33;60.19
6435;BME280;3250;42.694;23.278;2022-07-06T08:23:52;94957.22;;;28.60;57.88
6435;BME280;3250;42.694;23.278;2022-07-06T08:26:17;94945.16;;;28.40;58.33
6435;BME280;3250;42.694;23.278;2022-07-06T08:28:43;94967.44;;;28.11;57.48
6435;BME280;3250;42.694;23.278;2022-07-06T08:31:08;94956.09;;;27.58;59.93
6435;BME280;3250;42.694;23.278;2022-07-06T08:33:34;94942.81;;;27.39;59.66
6435;BME280;3250;42.694;23.278;2022-07-06T08:35:59;94950.44;;;27.37;60.02
6435;BME280;3250;42.694;23.278;2022-07-06T08:38:25;94926.66;;;27.17;61.54
6435;BME280;3250;42.694;23.278;2022-07-06T08:40:50;94924.81;;;27.34;64.63
6435;BME280;3250;42.694;23.278;2022-07-06T08:43:17;94943.63;;;27.48;60.20
6435;BME280;3250;42.694;23.278;2022-07-06T08:45:43;94953.56;;;27.70;60.65
6435;BME280;3250;42.694;23.278;2022-07-06T08:48:11;94948.84;;;27.45;61.39
6435;BME280;3250;42.694;23.278;2022-07-06T08:50:37;94944.63;;;27.61;61.82
6435;BME280;3250;42.694;23.278;2022-07-06T08:53:02;94948.66;;;27.89;61.44
6435;BME280;3250;42.694;23.278;2022-07-06T08:55:28;94957.28;;;28.34;59.38
6435;BME280;3250;42.694;23.278;2022-07-06T08:57:55;94956.44;;;28.60;57.54
6435;BME280;3250;42.694;23.278;2022-07-06T09:00:21;94946.19;;;28.74;57.78
6435;BME280;3250;42.694;23.278;2022-07-06T09:02:48;94958.31;;;28.85;57.92
6435;BME280;3250;42.694;23.278;2022-07-06T09:05:16;94948.91;;;28.65;56.96
6435;BME280;3250;42.694;23.278;2022-07-06T09:07:45;94949.44;;;28.50;56.79
6435;BME280;3250;42.694;23.278;2022-07-06T09:10:11;94938.41;;;28.64;57.81
6435;BME280;3250;42.694;23.278;2022-07-06T09:12:37;94961.78;;;28.94;57.82
6435;BME280;3250;42.694;23.278;2022-07-06T09:15:02;94960.81;;;28.99;56.28
6435;BME280;3250;42.694;23.278;2022-07-06T09:17:28;94923.06;;;28.85;56.51
6435;BME280;3250;42.694;23.278;2022-07-06T09:19:55;94959.41;;;28.93;56.45
6435;BME280;3250;42.694;23.278;2022-07-06T09:22:31;94956.41;;;28.68;55.29
6435;BME280;3250;42.694;23.278;2022-07-06T09:25:09;94955.16;;;27.71;58.05
6435;BME280;3250;42.694;23.278;2022-07-06T09:27:43;94950.63;;;27.40;59.38
6435;BME280;3250;42.694;23.278;2022-07-06T09:30:09;94947.22;;;27.26;60.03
6435;BME280;3250;42.694;23.278;2022-07-06T09:32:44;94945.56;;;27.08;59.50
6435;BME280;3250;42.694;23.278;2022-07-06T09:35:26;94936.50;;;27.04;61.18
6435;BME280;3250;42.694;23.278;2022-07-06T09:38:08;94953.09;;;27.20;60.60
6435;BME280;3250;42.694;23.278;2022-07-06T09:40:44;94949.63;;;27.36;60.79
6435;BME280;3250;42.694;23.278;2022-07-06T09:45:55;94925.75;;;27.30;61.87
6435;BME280;3250;42.694;23.278;2022-07-06T09:48:23;94924.22;;;27.46;60.20
6435;BME280;3250;42.694;23.278;2022-07-06T09:50:51;94919.31;;;27.57;60.55
6435;BME280;3250;42.694;23.278;2022-07-06T09:53:19;94935.09;;;27.72;59.31
6435;BME280;3250;42.694;23.278;2022-07-06T09:55:51;94933.19;;;27.64;60.94
6435;BME280;3250;42.694;23.278;2022-07-06T09:58:17;94934.13;;;27.68;58.65
6435;BME280;3250;42.694;23.278;2022-07-06T10:00:44;94944.63;;;27.69;60.00
6435;BME280;3250;42.694;23.278;2022-07-06T10:03:10;94929.34;;;27.56;58.23
6435;BME280;3250;42.694;23.278;2022-07-06T10:05:41;94935.03;;;27.46;58.58
6435;BME280;3250;42.694;23.278;2022-07-06T10:08:08;94937.25;;;27.53;60.69
6435;BME280;3250;42.694;23.278;2022-07-06T10:10:37;94936.63;;;27.47;59.42
6435;BME280;3250;42.694;23.278;2022-07-06T10:13:04;94934.53;;;27.44;59.47
6435;BME280;3250;42.694;23.278;2022-07-06T10:15:34;94932.19;;;27.60;59.56
6435;BME280;3250;42.694;23.278;2022-07-06T10:18:01;94933.19;;;27.64;60.73
6435;BME280;3250;42.694;23.278;2022-07-06T10:20:32;94933.50;;;27.71;60.04
6435;BME280;3250;42.694;23.278;2022-07-06T10:23:00;94928.72;;;27.85;61.51
6435;BME280;3250;42.694;23.278;2022-07-06T10:25:26;94915.19;;;27.85;58.97
6435;BME280;3250;42.694;23.278;2022-07-06T10:27:52;94916.47;;;27.96;58.90
6435;BME280;3250;42.694;23.278;2022-07-06T10:30:18;94920.59;;;28.02;59.89
6435;BME280;3250;42.694;23.278;2022-07-06T10:32:46;94897.81;;;28.12;58.88
6435;BME280;3250;42.694;23.278;2022-07-06T10:35:13;94896.22;;;28.11;58.50
6435;BME280;3250;42.694;23.278;2022-07-06T10:37:38;94920.59;;;28.37;57.06
6435;BME280;3250;42.694;23.278;2022-07-06T10:40:05;94909.31;;;28.35;57.79
6435;BME280;3250;42.694;23.278;2022-07-06T10:42:56;94913.47;;;28.24;56.34
6435;BME280;3250;42.694;23.278;2022-07-06T10:50:41;94923.31;;;28.28;59.26
6435;BME280;3250;42.694;23.278;2022-07-06T10:53:11;94893.09;;;28.18;57.18
6435;BME280;3250;42.694;23.278;2022-07-06T10:55:38;94921.25;;;28.42;57.82
6435;BME280;3250;42.694;23.278;2022-07-06T10:58:05;94928.25;;;28.43;57.21
6435;BME280;3250;42.694;23.278;2022-07-06T11:00:51;94917.09;;;28.45;56.08
6435;BME280;3250;42.694;23.278;2022-07-06T11:03:43;94926.81;;;28.29;56.15
6435;BME280;3250;42.694;23.278;2022-07-06T11:06:24;94924.31;;;28.24;56.92
6435;BME280;3250;42.694;23.278;2022-07-06T11:08:57;94918.25;;;28.27;56.74
6435;BME280;3250;42.694;23.278;2022-07-06T11:14:12;94916.97;;;28.33;57.13
6435;BME280;3250;42.694;23.278;2022-07-06T11:16:59;94913.28;;;28.37;57.49
6435;BME280;3250;42.694;23.278;2022-07-06T11:19:27;94895.88;;;28.47;57.78
6435;BME280;3250;42.694;23.278;2022-07-06T11:22:11;94904.63;;;28.61;55.50
6435;BME280;3250;42.694;23.278;2022-07-06T11:24:40;94911.94;;;28.69;55.21
6435;BME280;3250;42.694;23.278;2022-07-06T11:27:06;94901.94;;;28.52;54.81
6435;BME280;3250;42.694;23.278;2022-07-06T11:29:33;94899.06;;;28.49;54.95
6435;BME280;3250;42.694;23.278;2022-07-06T11:32:00;94898.34;;;28.23;54.31
6435;BME280;3250;42.694;23.278;2022-07-06T11:34:30;94882.72;;;28.20;54.73
6435;BME280;3250;42.694;23.278;2022-07-06T11:39:22;94902.13;;;28.39;55.27
6435;BME280;3250;42.694;23.278;2022-07-06T11:41:48;94891.28;;;28.39;57.35
6435;BME280;3250;42.694;23.278;2022-07-06T11:44:13;94890.94;;;28.49;55.05
6435;BME280;3250;42.694;23.278;2022-07-06T11:46:38;94891.59;;;28.46;54.25
6435;BME280;3250;42.694;23.278;2022-07-06T11:49:07;94866.41;;;28.45;55.46
6435;BME280;3250;42.694;23.278;2022-07-06T11:51:35;94872.59;;;28.54;54.67
6435;BME280;3250;42.694;23.278;2022-07-06T11:54:08;94871.81;;;28.45;54.89
6435;BME280;3250;42.694;23.278;2022-07-06T11:56:34;94868.16;;;28.50;56.08
6435;BME280;3250;42.694;23.278;2022-07-06T11:59:00;94867.94;;;28.64;55.35
6435;BME280;3250;42.694;23.278;2022-07-06T12:01:28;94865.06;;;28.77;55.45
6435;BME280;3250;42.694;23.278;2022-07-06T12:03:58;94844.31;;;28.73;52.92
6435;BME280;3250;42.694;23.278;2022-07-06T12:06:25;94842.94;;;28.58;53.38
6435;BME280;3250;42.694;23.278;2022-07-06T12:08:57;94872.94;;;28.53;52.20
6435;BME280;3250;42.694;23.278;2022-07-06T12:11:27;94877.16;;;28.25;53.35
6435;BME280;3250;42.694;23.278;2022-07-06T12:13:58;94875.25;;;27.99;53.86
6435;BME280;3250;42.694;23.278;2022-07-06T12:16:33;94874.78;;;27.71;53.13
6435;BME280;3250;42.694;23.278;2022-07-06T12:19:00;94880.63;;;27.48;54.60
6435;BME280;3250;42.694;23.278;2022-07-06T12:21:25;94875.47;;;27.20;55.61
6435;BME280;3250;42.694;23.278;2022-07-06T12:23:52;94860.16;;;27.07;56.52
6435;BME280;3250;42.694;23.278;2022-07-06T12:26:21;94876.88;;;27.09;57.02
6435;BME280;3250;42.694;23.278;2022-07-06T12:29:10;94870.38;;;27.19;56.57
6435;BME280;3250;42.694;23.278;2022-07-06T12:31:42;94862.44;;;27.22;56.90
6435;BME280;3250;42.694;23.278;2022-07-06T12:34:19;94869.94;;;27.51;55.39
6435;BME280;3250;42.694;23.278;2022-07-06T12:36:47;94859.97;;;27.60;57.78
6435;BME280;3250;42.694;23.278;2022-07-06T12:39:17;94863.78;;;27.68;55.47
6435;BME280;3250;42.694;23.278;2022-07-06T12:41:45;94866.16;;;27.78;57.07
6435;BME280;3250;42.694;23.278;2022-07-06T12:44:13;94863.78;;;27.85;56.14
6435;BME280;3250;42.694;23.278;2022-07-06T12:46:40;94847.53;;;27.76;55.29
6435;BME280;3250;42.694;23.278;2022-07-06T12:49:22;94845.31;;;27.70;55.66
6435;BME280;3250;42.694;23.278;2022-07-06T12:54:15;94840.56;;;27.67;54.38
6435;BME280;3250;42.694;23.278;2022-07-06T12:57:07;94846.59;;;27.72;54.80
6435;BME280;3250;42.694;23.278;2022-07-06T12:59:36;94844.22;;;27.71;56.16
6435;BME280;3250;42.694;23.278;2022-07-06T13:02:02;94835.78;;;27.72;55.78
6435;BME280;3250;42.694;23.278;2022-07-06T13:04:29;94837.38;;;27.82;54.17
6435;BME280;3250;42.694;23.278;2022-07-06T13:06:57;94830.34;;;27.81;53.51
6435;BME280;3250;42.694;23.278;2022-07-06T13:09:23;94834.34;;;27.92;52.94
6435;BME280;3250;42.694;23.278;2022-07-06T13:11:48;94833.25;;;27.76;50.99
6435;BME280;3250;42.694;23.278;2022-07-06T13:14:15;94837.38;;;27.65;53.05
6435;BME280;3250;42.694;23.278;2022-07-06T13:16:42;94814.94;;;27.56;53.34
6435;BME280;3250;42.694;23.278;2022-07-06T13:19:08;94835.16;;;27.75;53.11
6435;BME280;3250;42.694;23.278;2022-07-06T13:21:34;94820.34;;;27.73;51.64
6435;BME280;3250;42.694;23.278;2022-07-06T13:23:59;94830.19;;;27.69;52.80
6435;BME280;3250;42.694;23.278;2022-07-06T13:26:25;94828.28;;;27.69;52.49